sensor_id;sensor_type;location;lat;lon;timestamp;P1;durP1;ratioP1;P2;durP2;ratioP2
2462;SDS011;1243;54.298;10.172;2022-10-28T00:00:52;5.43;;;4.87;;
2462;SDS011;1243;54.298;10.172;2022-10-28T00:03:18;15.33;;;4.10;;
2462;SDS011;1243;54.298;10.172;2022-10-28T00:05:44;8.93;;;5.57;;
2462;SDS011;1243;54.298;10.172;2022-10-28T00:08:10;4.97;;;4.57;;
2462;SDS011;1243;54.298;10.172;2022-10-28T00:10:36;7.53;;;5.53;;
2462;SDS011;1243;54.298;10.172;2022-10-28T00:13:02;5.83;;;5.10;;
2462;SDS011;1243;54.298;10.172;2022-10-28T00:15:27;6.67;;;4.80;;
2462;SDS011;1243;54.298;10.172;2022-10-28T00:17:53;14.43;;;6.53;;
2462;SDS011;1243;54.298;10.172;2022-10-28T00:20:19;11.67;;;5.70;;
2462;SDS011;1243;54.298;10.172;2022-10-28T00:22:45;9.77;;;4.27;;
2462;SDS011;1243;54.298;10.172;2022-10-28T00:25:10;10.30;;;5.10;;
2462;SDS011;1243;54.298;10.172;2022-10-28T00:27:36;5.27;;;4.77;;
2462;SDS011;1243;54.298;10.172;2022-10-28T00:30:02;6.33;;;4.47;;
2462;SDS011;1243;54.298;10.172;2022-10-28T00:32:28;9.20;;;5.30;;
2462;SDS011;1243;54.298;10.172;2022-10-28T00:34:54;8.33;;;4.60;;
2462;SDS011;1243;54.298;10.172;2022-10-28T00:37:20;5.67;;;5.00;;
2462;SDS011;1243;54.298;10.172;2022-10-28T00:39:45;4.17;;;3.83;;
2462;SDS011;1243;54.298;10.172;2022-10-28T00:42:11;5.67;;;5.17;;
2462;SDS011;1243;54.298;10.172;2022-10-28T00:44:52;9.17;;;5.43;;
2462;SDS011;1243;54.298;10.172;2022-10-28T00:50:22;10.37;;;5.50;;
2462;SDS011;1243;54.298;10.172;2022-10-28T00:53:04;8.67;;;5.80;;
2462;SDS011;1243;54.298;10.172;2022-10-28T00:55:41;5.63;;;5.10;;
2462;SDS011;1243;54.298;10.172;2022-10-28T00:58:08;6.43;;;5.03;;
2462;SDS011;1243;54.298;10.172;2022-10-28T01:00:35;5.47;;;4.97;;
2462;SDS011;1243;54.298;10.172;2022-10-28T01:03:00;7.10;;;4.90;;
2462;SDS011;1243;54.298;10.172;2022-10-28T01:05:28;6.00;;;5.40;;
2462;SDS011;1243;54.298;10.172;2022-10-28T01:07:56;5.97;;;5.37;;
2462;SDS011;1243;54.298;10.172;2022-10-28T01:16:16;8.73;;;6.03;;
2462;SDS011;1243;54.298;10.172;2022-10-28T01:19:15;5.90;;;5.37;;
2462;SDS011;1243;54.298;10.172;2022-10-28T01:25:07;9.93;;;5.13;;
2462;SDS011;1243;54.298;10.172;2022-10-28T01:28:18;7.77;;;5.40;;
2462;SDS011;1243;54.298;10.172;2022-10-28T01:39:05;6.33;;;5.70;;
2462;SDS011;1243;54.298;10.172;2022-10-28T01:42:03;10.47;;;5.40;;
2462;SDS011;1243;54.298;10.172;2022-10-28T01:44:57;5.47;;;4.90;;
2462;SDS011;1243;54.298;10.172;2022-10-28T01:47:36;8.10;;;5.60;;
2462;SDS011;1243;54.298;10.172;2022-10-28T01:50:11;8.17;;;5.97;;
2462;SDS011;1243;54.298;10.172;2022-10-28T01:52:42;6.33;;;5.40;;
2462;SDS011;1243;54.298;10.172;2022-10-28T01:55:12;8.77;;;6.27;;
2462;SDS011;1243;54.298;10.172;2022-10-28T01:57:41;8.17;;;5.53;;
2462;SDS011;1243;54.298;10.172;2022-10-28T02:00:08;10.00;;;5.87;;
2462;SDS011;1243;54.298;10.172;2022-10-28T02:02:35;9.43;;;5.67;;
2462;SDS011;1243;54.298;10.172;2022-10-28T02:05:32;9.17;;;6.80;;
2462;SDS011;1243;54.298;10.172;2022-10-28T02:08:11;6.60;;;6.00;;
2462;SDS011;1243;54.298;10.172;2022-10-28T02:16:06;7.67;;;5.60;;
2462;SDS011;1243;54.298;10.172;2022-10-28T02:18:48;13.40;;;6.60;;
2462;SDS011;1243;54.298;10.172;2022-10-28T02:24:22;9.87;;;6.63;;
2462;SDS011;1243;54.298;10.172;2022-10-28T02:27:01;6.83;;;5.40;;
2462;SDS011;1243;54.298;10.172;2022-10-28T02:29:44;11.43;;;7.60;;
2462;SDS011;1243;54.298;10.172;2022-10-28T02:32:16;8.17;;;6.70;;
2462;SDS011;1243;54.298;10.172;2022-10-28T02:34:46;6.67;;;6.00;;
2462;SDS011;1243;54.298;10.172;2022-10-28T02:37:21;10.30;;;6.20;;
2462;SDS011;1243;54.298;10.172;2022-10-28T02:39:58;5.87;;;5.37;;
2462;SDS011;1243;54.298;10.172;2022-10-28T02:42:30;8.77;;;6.00;;
2462;SDS011;1243;54.298;10.172;2022-10-28T02:45:04;9.40;;;5.87;;
2462;SDS011;1243;54.298;10.172;2022-10-28T02:47:44;7.13;;;6.47;;
2462;SDS011;1243;54.298;10.172;2022-10-28T02:50:14;6.40;;;5.80;;
2462;SDS011;1243;54.298;10.172;2022-10-28T02:52:43;7.00;;;6.10;;
2462;SDS011;1243;54.298;10.172;2022-10-28T02:55:13;5.90;;;5.40;;
2462;SDS011;1243;54.298;10.172;2022-10-28T02:57:42;6.70;;;5.93;;
2462;SDS011;1243;54.298;10.172;2022-10-28T03:00:16;7.90;;;6.50;;
2462;SDS011;1243;54.298;10.172;2022-10-28T03:02:44;9.03;;;6.20;;
2462;SDS011;1243;54.298;10.172;2022-10-28T03:05:10;8.97;;;7.23;;
2462;SDS011;1243;54.298;10.172;2022-10-28T03:07:36;7.87;;;5.70;;
2462;SDS011;1243;54.298;10.172;2022-10-28T03:10:02;7.37;;;6.13;;
2462;SDS011;1243;54.298;10.172;2022-10-28T03:12:28;7.90;;;6.50;;
2462;SDS011;1243;54.298;10.172;2022-10-28T03:14:53;8.50;;;6.60;;
2462;SDS011;1243;54.298;10.172;2022-10-28T03:17:19;7.00;;;6.13;;
2462;SDS011;1243;54.298;10.172;2022-10-28T03:19:45;8.60;;;6.40;;
2462;SDS011;1243;54.298;10.172;2022-10-28T03:22:10;6.90;;;5.87;;
2462;SDS011;1243;54.298;10.172;2022-10-28T03:24:36;7.33;;;6.40;;
2462;SDS011;1243;54.298;10.172;2022-10-28T03:27:02;6.53;;;5.90;;
2462;SDS011;1243;54.298;10.172;2022-10-28T03:29:27;8.87;;;6.00;;
2462;SDS011;1243;54.298;10.172;2022-10-28T03:31:53;15.60;;;5.97;;
2462;SDS011;1243;54.298;10.172;2022-10-28T03:34:19;8.87;;;6.33;;
2462;SDS011;1243;54.298;10.172;2022-10-28T03:36:44;13.43;;;7.97;;
2462;SDS011;1243;54.298;10.172;2022-10-28T03:39:10;10.30;;;7.50;;
2462;SDS011;1243;54.298;10.172;2022-10-28T03:41:35;10.97;;;7.47;;
2462;SDS011;1243;54.298;10.172;2022-10-28T03:44:01;9.67;;;7.30;;
2462;SDS011;1243;54.298;10.172;2022-10-28T03:46:27;8.63;;;6.40;;
2462;SDS011;1243;54.298;10.172;2022-10-28T03:48:52;11.33;;;7.80;;
2462;SDS011;1243;54.298;10.172;2022-10-28T03:51:18;9.60;;;7.07;;
2462;SDS011;1243;54.298;10.172;2022-10-28T03:53:44;8.17;;;7.03;;
2462;SDS011;1243;54.298;10.172;2022-10-28T03:56:09;16.27;;;9.80;;
2462;SDS011;1243;54.298;10.172;2022-10-28T03:58:36;17.90;;;8.20;;
2462;SDS011;1243;54.298;10.172;2022-10-28T04:01:02;7.37;;;6.63;;
2462;SDS011;1243;54.298;10.172;2022-10-28T04:03:28;9.60;;;6.80;;
2462;SDS011;1243;54.298;10.172;2022-10-28T04:05:53;7.50;;;6.03;;
2462;SDS011;1243;54.298;10.172;2022-10-28T04:08:19;6.90;;;6.20;;
2462;SDS011;1243;54.298;10.172;2022-10-28T04:10:45;7.03;;;6.30;;
2462;SDS011;1243;54.298;10.172;2022-10-28T04:13:12;10.67;;;6.60;;
2462;SDS011;1243;54.298;10.172;2022-10-28T04:15:38;7.63;;;5.87;;
2462;SDS011;1243;54.298;10.172;2022-10-28T04:18:04;9.30;;;7.40;;
2462;SDS011;1243;54.298;10.172;2022-10-28T04:20:30;10.70;;;8.40;;
2462;SDS011;1243;54.298;10.172;2022-10-28T04:22:56;17.27;;;8.60;;
2462;SDS011;1243;54.298;10.172;2022-10-28T04:25:22;10.77;;;9.10;;
2462;SDS011;1243;54.298;10.172;2022-10-28T04:27:49;12.20;;;8.90;;
2462;SDS011;1243;54.298;10.172;2022-10-28T04:30:15;9.27;;;7.47;;
2462;SDS011;1243;54.298;10.172;2022-10-28T04:32:41;9.73;;;6.63;;
2462;SDS011;1243;54.298;10.172;2022-10-28T04:35:08;8.33;;;7.53;;
2462;SDS011;1243;54.298;10.172;2022-10-28T04:37:35;7.93;;;6.67;;
2462;SDS011;1243;54.298;10.172;2022-10-28T04:40:00;11.70;;;7.97;;
2462;SDS011;1243;54.298;10.172;2022-10-28T04:42:27;22.60;;;8.57;;
2462;SDS011;1243;54.298;10.172;2022-10-28T04:44:52;14.67;;;9.80;;
2462;SDS011;1243;54.298;10.172;2022-10-28T04:47:18;12.40;;;9.07;;
2462;SDS011;1243;54.298;10.172;2022-10-28T04:49:44;12.13;;;9.20;;
2462;SDS011;1243;54.298;10.172;2022-10-28T04:52:09;9.73;;;8.37;;
2462;SDS011;1243;54.298;10.172;2022-10-28T04:54:35;11.13;;;7.13;;
2462;SDS011;1243;54.298;10.172;2022-10-28T04:57:01;10.30;;;8.33;;
2462;SDS011;1243;54.298;10.172;2022-10-28T04:59:27;10.80;;;7.93;;
2462;SDS011;1243;54.298;10.172;2022-10-28T05:01:52;13.40;;;9.10;;
2462;SDS011;1243;54.298;10.172;2022-10-28T05:04:18;12.20;;;8.97;;
2462;SDS011;1243;54.298;10.172;2022-10-28T05:06:43;11.90;;;7.03;;
2462;SDS011;1243;54.298;10.172;2022-10-28T05:09:09;7.10;;;6.40;;
2462;SDS011;1243;54.298;10.172;2022-10-28T05:11:35;9.87;;;6.30;;
2462;SDS011;1243;54.298;10.172;2022-10-28T05:14:01;7.20;;;6.60;;
2462;SDS011;1243;54.298;10.172;2022-10-28T05:16:26;9.37;;;7.33;;
2462;SDS011;1243;54.298;10.172;2022-10-28T05:18:52;10.50;;;6.40;;
2462;SDS011;1243;54.298;10.172;2022-10-28T05:21:18;18.10;;;8.57;;
2462;SDS011;1243;54.298;10.172;2022-10-28T05:23:43;10.33;;;8.27;;
2462;SDS011;1243;54.298;10.172;2022-10-28T05:26:11;12.07;;;7.13;;
2462;SDS011;1243;54.298;10.172;2022-10-28T05:28:36;8.90;;;7.73;;
2462;SDS011;1243;54.298;10.172;2022-10-28T05:31:02;10.47;;;8.13;;
2462;SDS011;1243;54.298;10.172;2022-10-28T05:33:28;12.27;;;8.50;;
2462;SDS011;1243;54.298;10.172;2022-10-28T05:35:54;12.07;;;8.60;;
2462;SDS011;1243;54.298;10.172;2022-10-28T05:38:19;9.67;;;8.20;;
2462;SDS011;1243;54.298;10.172;2022-10-28T05:40:45;12.70;;;8.47;;
2462;SDS011;1243;54.298;10.172;2022-10-28T05:43:11;11.97;;;7.97;;
2462;SDS011;1243;54.298;10.172;2022-10-28T05:45:36;12.77;;;10.13;;
2462;SDS011;1243;54.298;10.172;2022-10-28T05:48:02;10.30;;;8.60;;
2462;SDS011;1243;54.298;10.172;2022-10-28T05:50:28;13.20;;;7.87;;
2462;SDS011;1243;54.298;10.172;2022-10-28T05:52:54;8.73;;;7.83;;
2462;SDS011;1243;54.298;10.172;2022-10-28T05:55:22;9.27;;;7.90;;
2462;SDS011;1243;54.298;10.172;2022-10-28T05:57:49;8.07;;;7.23;;
2462;SDS011;1243;54.298;10.172;2022-10-28T06:00:17;8.47;;;7.57;;
2462;SDS011;1243;54.298;10.172;2022-10-28T06:02:44;7.47;;;6.67;;
2462;SDS011;1243;54.298;10.172;2022-10-28T06:05:10;12.83;;;8.93;;
2462;SDS011;1243;54.298;10.172;2022-10-28T06:07:37;18.07;;;7.57;;
2462;SDS011;1243;54.298;10.172;2022-10-28T06:10:04;13.20;;;7.97;;
2462;SDS011;1243;54.298;10.172;2022-10-28T06:12:30;12.40;;;8.20;;
2462;SDS011;1243;54.298;10.172;2022-10-28T06:15:00;16.60;;;9.10;;
2462;SDS011;1243;54.298;10.172;2022-10-28T06:17:26;10.63;;;7.13;;
2462;SDS011;1243;54.298;10.172;2022-10-28T06:19:51;8.63;;;6.43;;
2462;SDS011;1243;54.298;10.172;2022-10-28T06:22:18;7.07;;;6.00;;
2462;SDS011;1243;54.298;10.172;2022-10-28T06:24:44;7.43;;;6.50;;
2462;SDS011;1243;54.298;10.172;2022-10-28T06:27:09;11.33;;;7.30;;
2462;SDS011;1243;54.298;10.172;2022-10-28T06:29:35;7.10;;;6.43;;
2462;SDS011;1243;54.298;10.172;2022-10-28T06:32:01;8.37;;;7.40;;
2462;SDS011;1243;54.298;10.172;2022-10-28T06:34:26;9.20;;;6.93;;
2462;SDS011;1243;54.298;10.172;2022-10-28T06:36:52;8.43;;;6.70;;
2462;SDS011;1243;54.298;10.172;2022-10-28T06:39:18;6.33;;;5.80;;
2462;SDS011;1243;54.298;10.172;2022-10-28T06:41:44;6.63;;;5.90;;
2462;SDS011;1243;54.298;10.172;2022-10-28T06:44:10;6.90;;;6.30;;
2462;SDS011;1243;54.298;10.172;2022-10-28T06:46:35;9.30;;;6.70;;
2462;SDS011;1243;54.298;10.172;2022-10-28T06:49:01;7.77;;;6.40;;
2462;SDS011;1243;54.298;10.172;2022-10-28T06:51:27;6.83;;;6.17;;
2462;SDS011;1243;54.298;10.172;2022-10-28T06:53:53;7.50;;;6.00;;
2462;SDS011;1243;54.298;10.172;2022-10-28T06:56:19;8.27;;;6.43;;
2462;SDS011;1243;54.298;10.172;2022-10-28T06:58:48;7.87;;;6.57;;
2462;SDS011;1243;54.298;10.172;2022-10-28T07:01:15;7.97;;;6.20;;
2462;SDS011;1243;54.298;10.172;2022-10-28T07:03:40;7.60;;;6.30;;
2462;SDS011;1243;54.298;10.172;2022-10-28T07:06:06;5.67;;;5.10;;
2462;SDS011;1243;54.298;10.172;2022-10-28T07:08:32;9.33;;;6.70;;
2462;SDS011;1243;54.298;10.172;2022-10-28T07:10:57;9.37;;;7.20;;
2462;SDS011;1243;54.298;10.172;2022-10-28T07:13:24;11.63;;;5.53;;
2462;SDS011;1243;54.298;10.172;2022-10-28T07:15:54;8.20;;;6.70;;
2462;SDS011;1243;54.298;10.172;2022-10-28T07:18:21;9.93;;;7.27;;
2462;SDS011;1243;54.298;10.172;2022-10-28T07:20:47;7.83;;;6.83;;
2462;SDS011;1243;54.298;10.172;2022-10-28T07:23:13;10.90;;;6.87;;
2462;SDS011;1243;54.298;10.172;2022-10-28T07:25:39;9.80;;;6.97;;
2462;SDS011;1243;54.298;10.172;2022-10-28T07:28:04;10.47;;;7.80;;
2462;SDS011;1243;54.298;10.172;2022-10-28T07:30:30;7.87;;;6.30;;
2462;SDS011;1243;54.298;10.172;2022-10-28T07:32:56;7.17;;;6.57;;
2462;SDS011;1243;54.298;10.172;2022-10-28T07:35:25;11.93;;;7.37;;
2462;SDS011;1243;54.298;10.172;2022-10-28T07:37:52;7.10;;;6.13;;
2462;SDS011;1243;54.298;10.172;2022-10-28T07:40:19;9.13;;;6.37;;
2462;SDS011;1243;54.298;10.172;2022-10-28T07:42:45;9.70;;;6.13;;
2462;SDS011;1243;54.298;10.172;2022-10-28T07:45:11;7.93;;;7.13;;
2462;SDS011;1243;54.298;10.172;2022-10-28T07:47:37;8.13;;;6.50;;
2462;SDS011;1243;54.298;10.172;2022-10-28T07:50:03;7.17;;;5.60;;
2462;SDS011;1243;54.298;10.172;2022-10-28T07:52:30;8.80;;;6.40;;
2462;SDS011;1243;54.298;10.172;2022-10-28T07:54:56;11.57;;;6.90;;
2462;SDS011;1243;54.298;10.172;2022-10-28T07:57:21;8.37;;;6.87;;
2462;SDS011;1243;54.298;10.172;2022-10-28T07:59:47;8.17;;;6.90;;
2462;SDS011;1243;54.298;10.172;2022-10-28T08:02:14;12.20;;;7.93;;
2462;SDS011;1243;54.298;10.172;2022-10-28T08:04:45;8.90;;;6.80;;
2462;SDS011;1243;54.298;10.172;2022-10-28T08:07:11;8.93;;;7.27;;
2462;SDS011;1243;54.298;10.172;2022-10-28T08:09:37;15.50;;;7.43;;
2462;SDS011;1243;54.298;10.172;2022-10-28T08:12:04;7.77;;;6.93;;
2462;SDS011;1243;54.298;10.172;2022-10-28T08:14:30;16.20;;;7.47;;
2462;SDS011;1243;54.298;10.172;2022-10-28T08:16:55;8.53;;;6.07;;
2462;SDS011;1243;54.298;10.172;2022-10-28T08:19:21;8.53;;;6.20;;
2462;SDS011;1243;54.298;10.172;2022-10-28T08:21:46;12.20;;;6.83;;
2462;SDS011;1243;54.298;10.172;2022-10-28T08:24:12;7.30;;;5.80;;
2462;SDS011;1243;54.298;10.172;2022-10-28T08:26:38;10.30;;;6.53;;
2462;SDS011;1243;54.298;10.172;2022-10-28T08:29:03;10.97;;;6.47;;
2462;SDS011;1243;54.298;10.172;2022-10-28T08:31:30;11.20;;;6.30;;
2462;SDS011;1243;54.298;10.172;2022-10-28T08:33:57;7.13;;;5.00;;
2462;SDS011;1243;54.298;10.172;2022-10-28T08:36:23;8.27;;;5.90;;
2462;SDS011;1243;54.298;10.172;2022-10-28T08:38:48;7.60;;;6.37;;
2462;SDS011;1243;54.298;10.172;2022-10-28T08:49:02;9.00;;;6.27;;
2462;SDS011;1243;54.298;10.172;2022-10-28T08:54:18;12.17;;;6.10;;
2462;SDS011;1243;54.298;10.172;2022-10-28T08:57:09;10.23;;;5.23;;
2462;SDS011;1243;54.298;10.172;2022-10-28T08:59:40;7.50;;;5.60;;
2462;SDS011;1243;54.298;10.172;2022-10-28T09:02:20;5.93;;;5.27;;
2462;SDS011;1243;54.298;10.172;2022-10-28T09:07:51;7.33;;;4.90;;
2462;SDS011;1243;54.298;10.172;2022-10-28T09:10:23;7.23;;;5.43;;
2462;SDS011;1243;54.298;10.172;2022-10-28T09:15:52;11.90;;;5.10;;
2462;SDS011;1243;54.298;10.172;2022-10-28T09:18:47;8.13;;;5.10;;
2462;SDS011;1243;54.298;10.172;2022-10-28T09:21:18;8.77;;;5.00;;
2462;SDS011;1243;54.298;10.172;2022-10-28T09:24:05;10.43;;;5.20;;
2462;SDS011;1243;54.298;10.172;2022-10-28T09:35:05;5.30;;;4.90;;
2462;SDS011;1243;54.298;10.172;2022-10-28T09:37:34;8.53;;;4.90;;
2462;SDS011;1243;54.298;10.172;2022-10-28T09:40:17;11.53;;;5.20;;
2462;SDS011;1243;54.298;10.172;2022-10-28T09:42:59;10.23;;;4.63;;
2462;SDS011;1243;54.298;10.172;2022-10-28T09:45:29;13.80;;;4.53;;
2462;SDS011;1243;54.298;10.172;2022-10-28T09:47:59;7.57;;;5.13;;
2462;SDS011;1243;54.298;10.172;2022-10-28T09:50:30;5.57;;;4.20;;
2462;SDS011;1243;54.298;10.172;2022-10-28T09:55:33;7.80;;;3.87;;
2462;SDS011;1243;54.298;10.172;2022-10-28T09:58:01;4.70;;;4.30;;
2462;SDS011;1243;54.298;10.172;2022-10-28T10:00:27;9.83;;;4.80;;
2462;SDS011;1243;54.298;10.172;2022-10-28T10:02:54;5.60;;;4.07;;
2462;SDS011;1243;54.298;10.172;2022-10-28T10:05:21;8.53;;;4.20;;
2462;SDS011;1243;54.298;10.172;2022-10-28T10:07:56;4.30;;;3.27;;
2462;SDS011;1243;54.298;10.172;2022-10-28T10:10:31;7.10;;;3.73;;
2462;SDS011;1243;54.298;10.172;2022-10-28T10:13:03;7.83;;;5.03;;
2462;SDS011;1243;54.298;10.172;2022-10-28T10:15:38;7.37;;;4.40;;
2462;SDS011;1243;54.298;10.172;2022-10-28T10:18:14;10.53;;;4.53;;
2462;SDS011;1243;54.298;10.172;2022-10-28T10:21:04;10.40;;;4.13;;
2462;SDS011;1243;54.298;10.172;2022-10-28T10:23:33;4.53;;;4.13;;
2462;SDS011;1243;54.298;10.172;2022-10-28T10:26:04;4.33;;;3.93;;
2462;SDS011;1243;54.298;10.172;2022-10-28T10:28:37;5.53;;;4.00;;
2462;SDS011;1243;54.298;10.172;2022-10-28T10:31:24;8.57;;;4.30;;
2462;SDS011;1243;54.298;10.172;2022-10-28T10:33:52;8.20;;;4.67;;
2462;SDS011;1243;54.298;10.172;2022-10-28T10:36:20;4.37;;;3.97;;
2462;SDS011;1243;54.298;10.172;2022-10-28T10:38:51;4.60;;;3.30;;
2462;SDS011;1243;54.298;10.172;2022-10-28T10:41:37;10.40;;;4.63;;
2462;SDS011;1243;54.298;10.172;2022-10-28T10:49:27;5.87;;;4.03;;
2462;SDS011;1243;54.298;10.172;2022-10-28T10:52:14;8.80;;;5.47;;
2462;SDS011;1243;54.298;10.172;2022-10-28T10:54:47;9.37;;;3.77;;
2462;SDS011;1243;54.298;10.172;2022-10-28T10:57:25;9.03;;;4.47;;
2462;SDS011;1243;54.298;10.172;2022-10-28T10:59:52;7.90;;;3.80;;
2462;SDS011;1243;54.298;10.172;2022-10-28T11:02:26;13.10;;;4.77;;
2462;SDS011;1243;54.298;10.172;2022-10-28T11:04:56;7.30;;;4.40;;
2462;SDS011;1243;54.298;10.172;2022-10-28T11:07:28;7.40;;;3.80;;
2462;SDS011;1243;54.298;10.172;2022-10-28T11:09:56;7.07;;;4.40;;
2462;SDS011;1243;54.298;10.172;2022-10-28T11:12:31;5.83;;;4.43;;
2462;SDS011;1243;54.298;10.172;2022-10-28T11:15:05;10.20;;;3.90;;
2462;SDS011;1243;54.298;10.172;2022-10-28T11:17:52;8.40;;;4.97;;
2462;SDS011;1243;54.298;10.172;2022-10-28T11:20:22;14.60;;;5.00;;
2462;SDS011;1243;54.298;10.172;2022-10-28T11:28:20;9.60;;;5.40;;
2462;SDS011;1243;54.298;10.172;2022-10-28T11:36:22;6.97;;;4.17;;
2462;SDS011;1243;54.298;10.172;2022-10-28T11:41:51;11.57;;;4.30;;
2462;SDS011;1243;54.298;10.172;2022-10-28T11:44:32;11.10;;;4.13;;
2462;SDS011;1243;54.298;10.172;2022-10-28T11:51:08;8.70;;;4.70;;
2462;SDS011;1243;54.298;10.172;2022-10-28T11:54:16;8.47;;;4.00;;
2462;SDS011;1243;54.298;10.172;2022-10-28T11:56:23;7.27;;;4.10;;
2462;SDS011;1243;54.298;10.172;2022-10-28T12:15:16;8.90;;;4.77;;
2462;SDS011;1243;54.298;10.172;2022-10-28T12:18:00;17.47;;;5.40;;
2462;SDS011;1243;54.298;10.172;2022-10-28T12:23:15;5.80;;;4.20;;
2462;SDS011;1243;54.298;10.172;2022-10-28T12:25:44;9.00;;;5.33;;
2462;SDS011;1243;54.298;10.172;2022-10-28T12:31:27;11.30;;;4.30;;
2462;SDS011;1243;54.298;10.172;2022-10-28T12:34:00;12.00;;;5.60;;
2462;SDS011;1243;54.298;10.172;2022-10-28T12:36:36;7.50;;;4.60;;
2462;SDS011;1243;54.298;10.172;2022-10-28T12:39:18;6.43;;;4.07;;
2462;SDS011;1243;54.298;10.172;2022-10-28T12:41:59;9.50;;;5.03;;
2462;SDS011;1243;54.298;10.172;2022-10-28T12:44:27;8.43;;;5.90;;
2462;SDS011;1243;54.298;10.172;2022-10-28T12:58:27;7.13;;;4.53;;
2462;SDS011;1243;54.298;10.172;2022-10-28T13:01:08;13.57;;;4.63;;
2462;SDS011;1243;54.298;10.172;2022-10-28T13:03:39;8.37;;;6.00;;
2462;SDS011;1243;54.298;10.172;2022-10-28T13:09:05;11.00;;;4.77;;
2462;SDS011;1243;54.298;10.172;2022-10-28T13:12:02;12.87;;;5.30;;
2462;SDS011;1243;54.298;10.172;2022-10-28T13:28:28;6.97;;;4.27;;
2462;SDS011;1243;54.298;10.172;2022-10-28T13:31:05;7.73;;;4.30;;
2462;SDS011;1243;54.298;10.172;2022-10-28T13:33:32;10.33;;;5.03;;
2462;SDS011;1243;54.298;10.172;2022-10-28T13:38:54;7.83;;;4.67;;
2462;SDS011;1243;54.298;10.172;2022-10-28T13:49:31;7.07;;;4.43;;
2462;SDS011;1243;54.298;10.172;2022-10-28T13:57:15;8.20;;;4.27;;
2462;SDS011;1243;54.298;10.172;2022-10-28T13:59:50;8.03;;;4.30;;
2462;SDS011;1243;54.298;10.172;2022-10-28T14:02:22;7.57;;;4.60;;
2462;SDS011;1243;54.298;10.172;2022-10-28T14:04:54;10.67;;;4.30;;
2462;SDS011;1243;54.298;10.172;2022-10-28T14:07:28;7.13;;;4.50;;
2462;SDS011;1243;54.298;10.172;2022-10-28T14:09:57;6.57;;;3.77;;
2462;SDS011;1243;54.298;10.172;2022-10-28T14:12:39;11.33;;;5.13;;
2462;SDS011;1243;54.298;10.172;2022-10-28T14:17:47;6.43;;;4.57;;
2462;SDS011;1243;54.298;10.172;2022-10-28T14:22:56;9.30;;;6.33;;
2462;SDS011;1243;54.298;10.172;2022-10-28T14:26:06;10.27;;;5.80;;
2462;SDS011;1243;54.298;10.172;2022-10-28T14:33:32;15.20;;;5.90;;
2462;SDS011;1243;54.298;10.172;2022-10-28T14:41:34;15.20;;;7.10;;
2462;SDS011;1243;54.298;10.172;2022-10-28T14:47:06;11.20;;;5.57;;
2462;SDS011;1243;54.298;10.172;2022-10-28T14:49:37;11.20;;;5.67;;
2462;SDS011;1243;54.298;10.172;2022-10-28T14:52:11;9.63;;;5.10;;
2462;SDS011;1243;54.298;10.172;2022-10-28T14:54:42;16.30;;;5.73;;
2462;SDS011;1243;54.298;10.172;2022-10-28T14:57:11;8.67;;;4.00;;
2462;SDS011;1243;54.298;10.172;2022-10-28T14:59:43;8.63;;;4.67;;
2462;SDS011;1243;54.298;10.172;2022-10-28T15:02:13;14.43;;;5.67;;
2462;SDS011;1243;54.298;10.172;2022-10-28T15:04:42;12.50;;;5.00;;
2462;SDS011;1243;54.298;10.172;2022-10-28T15:07:19;13.10;;;4.60;;
2462;SDS011;1243;54.298;10.172;2022-10-28T15:09:46;9.17;;;4.83;;
2462;SDS011;1243;54.298;10.172;2022-10-28T15:12:17;9.60;;;4.50;;
2462;SDS011;1243;54.298;10.172;2022-10-28T15:17:26;8.67;;;5.80;;
2462;SDS011;1243;54.298;10.172;2022-10-28T15:19:55;12.47;;;4.40;;
2462;SDS011;1243;54.298;10.172;2022-10-28T15:22:23;8.23;;;4.90;;
2462;SDS011;1243;54.298;10.172;2022-10-28T15:24:54;9.10;;;5.50;;
2462;SDS011;1243;54.298;10.172;2022-10-28T15:27:20;15.70;;;5.57;;
2462;SDS011;1243;54.298;10.172;2022-10-28T15:29:46;9.50;;;6.23;;
2462;SDS011;1243;54.298;10.172;2022-10-28T15:34:49;9.90;;;5.97;;
2462;SDS011;1243;54.298;10.172;2022-10-28T15:37:15;12.73;;;6.13;;
2462;SDS011;1243;54.298;10.172;2022-10-28T15:39:45;8.53;;;5.13;;
2462;SDS011;1243;54.298;10.172;2022-10-28T15:45:05;10.70;;;4.73;;
2462;SDS011;1243;54.298;10.172;2022-10-28T15:47:40;8.93;;;5.10;;
2462;SDS011;1243;54.298;10.172;2022-10-28T15:52:41;11.73;;;5.90;;
2462;SDS011;1243;54.298;10.172;2022-10-28T15:55:29;10.00;;;4.97;;
2462;SDS011;1243;54.298;10.172;2022-10-28T15:58:03;8.20;;;4.63;;
2462;SDS011;1243;54.298;10.172;2022-10-28T16:00:51;8.30;;;5.00;;
2462;SDS011;1243;54.298;10.172;2022-10-28T16:03:25;11.00;;;6.27;;
2462;SDS011;1243;54.298;10.172;2022-10-28T16:05:53;12.00;;;5.97;;
2462;SDS011;1243;54.298;10.172;2022-10-28T16:08:22;9.67;;;5.37;;
2462;SDS011;1243;54.298;10.172;2022-10-28T16:11:01;8.27;;;5.40;;
2462;SDS011;1243;54.298;10.172;2022-10-28T16:13:37;8.10;;;5.20;;
2462;SDS011;1243;54.298;10.172;2022-10-28T16:16:10;12.33;;;5.20;;
2462;SDS011;1243;54.298;10.172;2022-10-28T16:18:47;7.10;;;4.93;;
2462;SDS011;1243;54.298;10.172;2022-10-28T16:21:19;7.00;;;4.27;;
2462;SDS011;1243;54.298;10.172;2022-10-28T16:23:48;12.90;;;6.13;;
2462;SDS011;1243;54.298;10.172;2022-10-28T16:26:20;7.60;;;5.40;;
2462;SDS011;1243;54.298;10.172;2022-10-28T16:28:49;9.73;;;5.77;;
2462;SDS011;1243;54.298;10.172;2022-10-28T16:31:15;10.07;;;5.70;;
2462;SDS011;1243;54.298;10.172;2022-10-28T16:33:42;8.27;;;4.93;;
2462;SDS011;1243;54.298;10.172;2022-10-28T16:36:08;7.80;;;4.87;;
2462;SDS011;1243;54.298;10.172;2022-10-28T16:38:34;8.87;;;5.20;;
2462;SDS011;1243;54.298;10.172;2022-10-28T16:41:00;8.87;;;5.00;;
2462;SDS011;1243;54.298;10.172;2022-10-28T16:43:28;9.57;;;4.97;;
2462;SDS011;1243;54.298;10.172;2022-10-28T16:45:54;12.47;;;5.03;;
2462;SDS011;1243;54.298;10.172;2022-10-28T16:48:23;10.30;;;6.23;;
2462;SDS011;1243;54.298;10.172;2022-10-28T16:50:50;14.77;;;5.33;;
2462;SDS011;1243;54.298;10.172;2022-10-28T16:53:18;15.13;;;6.13;;
2462;SDS011;1243;54.298;10.172;2022-10-28T16:55:44;9.93;;;6.37;;
2462;SDS011;1243;54.298;10.172;2022-10-28T16:58:10;17.93;;;6.17;;
2462;SDS011;1243;54.298;10.172;2022-10-28T17:00:36;10.30;;;7.00;;
2462;SDS011;1243;54.298;10.172;2022-10-28T17:03:03;12.00;;;5.83;;
2462;SDS011;1243;54.298;10.172;2022-10-28T17:05:29;9.30;;;5.40;;
2462;SDS011;1243;54.298;10.172;2022-10-28T17:07:55;9.00;;;6.07;;
2462;SDS011;1243;54.298;10.172;2022-10-28T17:10:22;13.33;;;5.47;;
2462;SDS011;1243;54.298;10.172;2022-10-28T17:12:48;11.63;;;6.60;;
2462;SDS011;1243;54.298;10.172;2022-10-28T17:15:14;12.40;;;7.00;;
2462;SDS011;1243;54.298;10.172;2022-10-28T17:17:40;8.10;;;6.27;;
2462;SDS011;1243;54.298;10.172;2022-10-28T17:20:06;12.63;;;5.40;;
2462;SDS011;1243;54.298;10.172;2022-10-28T17:22:32;11.73;;;6.10;;
2462;SDS011;1243;54.298;10.172;2022-10-28T17:24:58;10.37;;;6.93;;
2462;SDS011;1243;54.298;10.172;2022-10-28T17:27:23;7.67;;;6.20;;
2462;SDS011;1243;54.298;10.172;2022-10-28T17:29:49;10.17;;;6.60;;
2462;SDS011;1243;54.298;10.172;2022-10-28T17:32:15;10.20;;;5.83;;
2462;SDS011;1243;54.298;10.172;2022-10-28T17:34:41;14.37;;;5.80;;
2462;SDS011;1243;54.298;10.172;2022-10-28T17:37:06;13.23;;;5.40;;
2462;SDS011;1243;54.298;10.172;2022-10-28T17:39:32;10.43;;;6.00;;
2462;SDS011;1243;54.298;10.172;2022-10-28T17:41:58;11.67;;;5.37;;
2462;SDS011;1243;54.298;10.172;2022-10-28T17:44:24;22.63;;;6.47;;
2462;SDS011;1243;54.298;10.172;2022-10-28T17:46:50;12.77;;;6.30;;
2462;SDS011;1243;54.298;10.172;2022-10-28T17:49:16;9.10;;;6.00;;
2462;SDS011;1243;54.298;10.172;2022-10-28T17:51:42;14.97;;;6.30;;
2462;SDS011;1243;54.298;10.172;2022-10-28T17:54:07;13.97;;;6.50;;
2462;SDS011;1243;54.298;10.172;2022-10-28T17:56:33;9.70;;;6.13;;
2462;SDS011;1243;54.298;10.172;2022-10-28T17:59:00;13.83;;;6.80;;
2462;SDS011;1243;54.298;10.172;2022-10-28T18:01:29;11.30;;;5.93;;
2462;SDS011;1243;54.298;10.172;2022-10-28T18:03:56;11.67;;;7.30;;
2462;SDS011;1243;54.298;10.172;2022-10-28T18:06:22;21.23;;;6.20;;